createdAt,value
2023-02-22T00:01:19.299Z,77.65
2023-02-22T00:05:22.899Z,77.40
2023-02-22T00:09:46.734Z,77.55
2023-02-22T00:14:10.608Z,77.41
2023-02-22T00:18:35.534Z,77.86
2023-02-22T00:22:59.404Z,77.97
2023-02-22T00:27:45.187Z,78.98
2023-02-22T00:32:09.294Z,79.48
2023-02-22T00:36:33.334Z,79.57
2023-02-22T00:40:57.267Z,79.15
2023-02-22T00:45:21.250Z,78.59
2023-02-22T00:49:45.134Z,78.69
2023-02-22T00:54:09.200Z,79.11
2023-02-22T00:58:33.152Z,79.09
2023-02-22T01:02:58.223Z,79.13
2023-02-22T01:07:22.228Z,79.12
2023-02-22T01:11:46.194Z,79.21
2023-02-22T01:16:10.079Z,78.71
2023-02-22T01:20:34.090Z,78.75
2023-02-22T01:24:57.982Z,78.61
2023-02-22T01:29:21.211Z,78.73
2023-02-22T01:33:45.295Z,78.74
2023-02-22T01:38:09.176Z,78.82
2023-02-22T01:42:33.159Z,79.04
2023-02-22T01:46:59.680Z,78.95
2023-02-22T01:51:29.441Z,78.63
2023-02-22T01:55:53.339Z,78.85
2023-02-22T02:00:17.137Z,79.13
2023-02-22T02:04:41.134Z,79.19
2023-02-22T02:09:26.112Z,79.38
2023-02-22T02:13:50.039Z,79.59
2023-02-22T02:18:13.896Z,79.38
2023-02-22T02:22:43.696Z,79.82
2023-02-22T02:27:19.742Z,79.70
2023-02-22T02:31:53.008Z,79.76
2023-02-22T02:35:53.152Z,80.10
2023-02-22T02:40:17.199Z,79.93
2023-02-22T02:44:41.423Z,80.62
2023-02-22T02:49:05.017Z,81.13
2023-02-22T02:53:27.866Z,80.95
2023-02-22T02:57:48.136Z,81.68
2023-02-22T03:02:12.104Z,81.75
2023-02-22T03:06:44.847Z,81.47
2023-02-22T03:11:23.410Z,81.50
2023-02-22T03:16:08.541Z,81.65
2023-02-22T03:20:39.389Z,81.42
2023-02-22T03:24:57.912Z,81.59
2023-02-22T03:29:21.849Z,81.65
2023-02-22T03:33:45.811Z,81.63
2023-02-22T03:38:09.747Z,81.60
2023-02-22T03:42:34.445Z,80.88
2023-02-22T03:46:58.478Z,80.37
2023-02-22T03:51:22.718Z,80.15
2023-02-22T03:55:46.978Z,80.05
2023-02-22T04:00:11.846Z,80.06
2023-02-22T04:04:17.134Z,80.28
2023-02-22T04:08:34.430Z,80.98
2023-02-22T04:12:58.275Z,81.00
2023-02-22T04:17:23.186Z,80.89
2023-02-22T04:21:47.063Z,80.70
2023-02-22T04:26:04.465Z,80.53
2023-02-22T04:30:28.438Z,80.18
2023-02-22T04:34:52.496Z,80.11
2023-02-22T04:39:16.583Z,80.37
2023-02-22T04:43:40.975Z,80.68
2023-02-22T04:48:10.701Z,81.36
2023-02-22T04:52:34.629Z,80.95
2023-02-22T04:56:59.903Z,80.74
2023-02-22T05:01:23.835Z,80.91
2023-02-22T05:05:47.891Z,80.60
2023-02-22T05:10:11.828Z,80.74
2023-02-22T05:14:28.221Z,80.99
2023-02-22T05:18:52.209Z,81.01
2023-02-22T05:23:16.042Z,80.67
2023-02-22T05:27:41.163Z,80.49
2023-02-22T05:32:05.217Z,80.36
2023-02-22T05:36:29.252Z,80.96
2023-02-22T05:40:53.135Z,81.27
2023-02-22T05:45:17.055Z,80.90
2023-02-22T05:49:41.343Z,80.88
2023-02-22T05:54:05.271Z,80.97
2023-02-22T05:58:29.678Z,81.01
2023-02-22T06:02:53.571Z,80.86
2023-02-22T06:07:18.863Z,80.62
2023-02-22T06:11:42.884Z,80.64
2023-02-22T06:16:06.972Z,80.77
2023-02-22T06:20:30.874Z,80.86
2023-02-22T06:24:47.254Z,80.61
2023-02-22T06:29:11.451Z,80.37
2023-02-22T06:33:35.492Z,80.52
2023-02-22T06:38:01.535Z,80.64
2023-02-22T06:42:07.931Z,80.70
2023-02-22T06:46:32.020Z,80.59
2023-02-22T06:51:04.632Z,80.57
2023-02-22T06:55:28.557Z,80.82
2023-02-22T06:59:52.493Z,80.64
2023-02-22T07:04:16.600Z,80.56
2023-02-22T07:08:40.501Z,80.41
2023-02-22T07:13:04.655Z,80.25
2023-02-22T07:17:21.243Z,80.30
2023-02-22T07:21:46.239Z,79.84
2023-02-22T07:26:10.093Z,79.68
2023-02-22T07:30:34.475Z,79.59
2023-02-22T07:34:58.518Z,79.26
2023-02-22T07:39:23.548Z,78.87
2023-02-22T07:43:59.450Z,78.74
2023-02-22T07:48:23.265Z,78.59
2023-02-22T07:52:47.905Z,78.39
2023-02-22T07:57:11.852Z,77.94
2023-02-22T08:01:29.223Z,77.07
2023-02-22T08:05:53.186Z,76.79
2023-02-22T08:10:18.079Z,76.00
2023-02-22T08:14:42.068Z,75.57
2023-02-22T08:19:06.342Z,73.88
2023-02-22T08:23:30.247Z,73.24
2023-02-22T08:27:49.853Z,73.04
2023-02-22T08:32:13.967Z,72.63
2023-02-22T08:36:30.616Z,70.53
2023-02-22T08:40:53.906Z,70.31
2023-02-22T08:45:06.804Z,69.54
2023-02-22T08:49:30.969Z,69.21
2023-02-22T08:53:54.864Z,67.96
2023-02-22T08:58:18.932Z,67.35
2023-02-22T09:02:42.774Z,67.53
2023-02-22T09:07:07.041Z,67.21
2023-02-22T09:11:30.879Z,66.38
2023-02-22T09:15:45.099Z,65.21
2023-02-22T09:20:09.193Z,64.60
2023-02-22T09:24:26.372Z,64.17
2023-02-22T09:28:51.447Z,63.55
2023-02-22T09:33:15.487Z,63.63
2023-02-22T09:37:38.111Z,62.32
2023-02-22T09:42:08.029Z,62.00
2023-02-22T09:46:50.088Z,62.40
2023-02-22T09:51:17.378Z,62.53
2023-02-22T09:55:47.562Z,62.30
2023-02-22T10:00:11.011Z,61.67
2023-02-22T10:04:40.518Z,60.99
2023-02-22T10:09:04.438Z,61.01
2023-02-22T10:13:34.128Z,61.19
2023-02-22T10:18:22.307Z,61.03
2023-02-22T10:22:58.541Z,61.12
2023-02-22T10:27:25.318Z,61.14
2023-02-22T10:31:52.255Z,60.43
2023-02-22T10:36:19.602Z,60.06
2023-02-22T10:40:44.606Z,59.97
2023-02-22T10:45:08.560Z,60.28
2023-02-22T10:49:32.543Z,60.72
2023-02-22T10:54:01.541Z,61.05
2023-02-22T10:58:25.502Z,60.99
2023-02-22T11:02:49.504Z,61.70
2023-02-22T11:07:19.337Z,61.00
2023-02-22T11:11:43.186Z,60.62
2023-02-22T11:16:24.557Z,59.37
2023-02-22T11:20:48.515Z,58.99
2023-02-22T11:25:13.449Z,58.31
2023-02-22T11:29:37.430Z,56.72
2023-02-22T11:34:01.473Z,57.36
2023-02-22T11:38:34.546Z,57.55
2023-02-22T11:42:58.468Z,57.67
2023-02-22T11:47:22.392Z,58.10
2023-02-22T11:51:55.244Z,58.67
2023-02-22T11:56:36.848Z,58.98
2023-02-22T12:01:05.638Z,59.37
2023-02-22T12:05:32.731Z,59.04
2023-02-22T12:09:59.550Z,59.13
2023-02-22T12:14:29.488Z,59.16
2023-02-22T12:18:55.996Z,59.05
2023-02-22T12:23:35.294Z,58.63
2023-02-22T12:28:00.266Z,58.57
2023-02-22T12:32:27.006Z,58.34
2023-02-22T12:36:51.187Z,58.39
2023-02-22T12:41:23.922Z,57.94
2023-02-22T12:45:47.891Z,57.80
2023-02-22T12:50:13.325Z,58.51
2023-02-22T12:54:17.957Z,58.72
2023-02-22T12:58:50.709Z,58.82
2023-02-22T13:03:26.539Z,59.14
2023-02-22T13:07:50.435Z,59.35
2023-02-22T13:12:14.490Z,59.45
2023-02-22T13:16:59.751Z,59.20
2023-02-22T13:21:22.249Z,59.43
2023-02-22T13:25:58.371Z,59.20
2023-02-22T13:30:22.423Z,59.18
2023-02-22T13:34:55.416Z,59.62
2023-02-22T13:39:35.491Z,59.69
2023-02-22T13:44:03.906Z,59.86
2023-02-22T13:48:52.476Z,59.94
2023-02-22T13:53:16.436Z,60.09
2023-02-22T13:57:41.738Z,60.05
2023-02-22T14:02:26.080Z,60.41
2023-02-22T14:06:51.942Z,60.70
2023-02-22T14:11:17.325Z,60.47
2023-02-22T14:15:51.298Z,60.68
2023-02-22T14:20:18.046Z,60.89
2023-02-22T14:24:47.755Z,61.18
2023-02-22T14:29:14.229Z,61.72
2023-02-22T14:33:41.249Z,61.83
2023-02-22T14:38:09.638Z,61.82
2023-02-22T14:42:36.366Z,61.76
2023-02-22T14:47:00.361Z,61.81
2023-02-22T14:51:27.346Z,61.78
2023-02-22T14:55:59.223Z,61.73
2023-02-22T15:00:41.161Z,61.78
2023-02-22T15:05:18.053Z,61.72
2023-02-22T15:10:07.724Z,61.72
2023-02-22T15:14:32.630Z,61.86
2023-02-22T15:18:59.115Z,61.92
2023-02-22T15:23:23.160Z,62.24
2023-02-22T15:27:47.223Z,62.22
2023-02-22T15:32:17.342Z,62.32
2023-02-22T15:36:41.389Z,62.30
2023-02-22T15:41:17.741Z,62.13
2023-02-22T15:45:21.658Z,61.98
2023-02-22T15:49:48.246Z,62.19
2023-02-22T15:54:27.579Z,62.32
2023-02-22T15:58:44.959Z,62.51
2023-02-22T16:03:17.770Z,62.56
2023-02-22T16:07:42.107Z,62.55
2023-02-22T16:12:14.939Z,62.53
2023-02-22T16:16:45.104Z,62.56
2023-02-22T16:21:12.052Z,62.74
2023-02-22T16:25:35.987Z,62.65
2023-02-22T16:29:59.036Z,62.81
2023-02-22T16:34:22.968Z,62.85
2023-02-22T16:38:49.785Z,62.28
2023-02-22T16:43:17.088Z,62.49
2023-02-22T16:47:41.068Z,62.04
2023-02-22T16:52:07.835Z,62.03
2023-02-22T16:56:31.757Z,61.87
2023-02-22T17:00:57.117Z,61.69
2023-02-22T17:05:20.518Z,61.92
2023-02-22T17:09:45.117Z,62.09
2023-02-22T17:14:09.067Z,62.26
2023-02-22T17:18:32.980Z,62.72
2023-02-22T17:22:57.204Z,62.69
2023-02-22T17:27:21.054Z,62.69
2023-02-22T17:31:28.361Z,62.57
2023-02-22T17:35:53.966Z,62.94
2023-02-22T17:40:17.718Z,62.98
2023-02-22T17:44:41.696Z,63.01
2023-02-22T17:49:05.780Z,63.16
2023-02-22T17:53:32.697Z,63.45
2023-02-22T17:57:56.744Z,63.84
2023-02-22T18:02:27.340Z,64.11
2023-02-22T18:06:41.271Z,63.97
2023-02-22T18:11:05.375Z,63.93
2023-02-22T18:15:12.364Z,64.13
2023-02-22T18:19:39.613Z,64.06
2023-02-22T18:24:23.739Z,64.29
2023-02-22T18:28:47.696Z,64.89
2023-02-22T18:33:11.543Z,64.84
2023-02-22T18:37:35.601Z,64.91
2023-02-22T18:42:02.580Z,64.71
2023-02-22T18:46:26.562Z,64.79
2023-02-22T18:50:50.597Z,64.82
2023-02-22T18:55:14.681Z,65.05
2023-02-22T18:59:39.622Z,65.23
2023-02-22T19:04:03.371Z,65.40
2023-02-22T19:08:27.345Z,65.43
2023-02-22T19:12:53.639Z,65.59
2023-02-22T19:17:10.366Z,65.77
2023-02-22T19:21:37.255Z,66.18
2023-02-22T19:25:40.978Z,66.32
2023-02-22T19:30:05.062Z,66.20
2023-02-22T19:34:27.763Z,66.15
2023-02-22T19:39:00.266Z,66.58
2023-02-22T19:43:25.211Z,66.79
2023-02-22T19:47:49.185Z,66.88
2023-02-22T19:52:13.435Z,66.64
2023-02-22T19:56:37.703Z,66.66
2023-02-22T20:01:01.657Z,66.85
2023-02-22T20:05:25.777Z,66.84
2023-02-22T20:09:49.475Z,67.01
2023-02-22T20:14:14.533Z,67.40
2023-02-22T20:18:38.514Z,67.59
2023-02-22T20:23:02.425Z,67.50
2023-02-22T20:27:26.504Z,67.36
2023-02-22T20:31:52.238Z,67.34
2023-02-22T20:36:17.575Z,67.86
2023-02-22T20:40:41.511Z,67.86
2023-02-22T20:45:19.285Z,67.93
2023-02-22T20:49:43.129Z,67.95
2023-02-22T20:54:07.031Z,67.73
2023-02-22T20:58:31.349Z,68.14
2023-02-22T21:02:57.291Z,68.59
2023-02-22T21:07:24.244Z,68.58
2023-02-22T21:11:48.302Z,68.34
2023-02-22T21:16:12.272Z,68.39
2023-02-22T21:20:35.060Z,68.82
2023-02-22T21:24:52.439Z,69.02
2023-02-22T21:29:16.038Z,68.99
2023-02-22T21:33:41.094Z,69.74
2023-02-22T21:37:56.640Z,69.97
2023-02-22T21:42:21.624Z,70.22
2023-02-22T21:46:29.553Z,70.26
2023-02-22T21:50:46.342Z,69.99
2023-02-22T21:55:10.199Z,70.15
2023-02-22T21:59:36.783Z,70.50
2023-02-22T22:03:43.016Z,70.65
2023-02-22T22:08:07.316Z,70.78
2023-02-22T22:12:39.227Z,70.78
2023-02-22T22:17:16.508Z,70.94
2023-02-22T22:21:40.436Z,70.92
2023-02-22T22:26:05.336Z,70.93
2023-02-22T22:30:29.291Z,71.11
2023-02-22T22:34:52.999Z,71.11
2023-02-22T22:39:16.988Z,71.04
2023-02-22T22:43:40.957Z,71.11
2023-02-22T22:48:06.006Z,71.02
2023-02-22T22:52:30.002Z,71.12
2023-02-22T22:56:56.524Z,71.35
2023-02-22T23:01:21.249Z,71.27
2023-02-22T23:05:45.326Z,71.49
2023-02-22T23:10:09.059Z,71.77
2023-02-22T23:14:32.919Z,72.04
2023-02-22T23:18:57.799Z,71.84
2023-02-22T23:23:06.731Z,71.73
2023-02-22T23:27:30.802Z,71.80
2023-02-22T23:31:54.839Z,71.42
2023-02-22T23:36:18.833Z,71.73
2023-02-22T23:40:42.735Z,71.69
2023-02-22T23:45:06.742Z,71.78
2023-02-22T23:49:22.842Z,71.91
2023-02-22T23:53:46.769Z,72.00
2023-02-22T23:58:03.474Z,72.07
